Time;durP1;ratioP1;P1;durP2;ratioP2;P2;SDS_P1;SDS_P2;PMS_P1;PMS_P2;Temp;Humidity;BMP_temperature;BMP_pressure;BME280_temperature;BME280_humidity;BME280_pressure;Samples;Min_cycle;Max_cycle;Signal;HPM_P1;HPM_P2
2022/09/13 00:00:59;;;;;;;5.07;2.53;;;25.10;50.20;;;;;;5046838;28;20033;-52
2022/09/13 00:03:26;;;;;;;3.50;2.25;;;25.10;50.20;;;;;;5054674;28;20044;-51
2022/09/13 00:05:52;;;;;;;3.28;2.70;;;25.10;50.20;;;;;;5048065;28;20044;-53
2022/09/13 00:08:17;;;;;;;2.75;2.55;;;25.10;50.20;;;;;;5051351;28;20034;-52
2022/09/13 00:10:45;;;;;;;2.90;2.60;;;25.10;50.20;;;;;;5034652;28;20441;-53
2022/09/13 00:13:12;;;;;;;4.53;2.55;;;25.10;50.30;;;;;;5048605;28;20035;-55
2022/09/13 00:15:43;;;;;;;3.55;2.13;;;25.10;50.30;;;;;;5034826;28;20044;-52
2022/09/13 00:18:09;;;;;;;2.72;2.30;;;25.10;50.30;;;;;;5033448;28;20476;-51
2022/09/13 00:20:35;;;;;;;2.92;2.33;;;25.10;50.30;;;;;;5034305;28;20033;-51
2022/09/13 00:23:01;;;;;;;2.58;2.20;;;25.10;50.40;;;;;;5034607;28;20033;-53
2022/09/13 00:25:27;;;;;;;3.33;2.20;;;25.10;50.40;;;;;;5043099;28;20044;-54
2022/09/13 00:27:52;;;;;;;3.05;2.22;;;25.10;50.50;;;;;;5054534;28;20025;-53
2022/09/13 00:30:18;;;;;;;3.00;2.40;;;25.10;50.50;;;;;;5052452;28;20037;-51
2022/09/13 00:32:44;;;;;;;3.38;2.60;;;25.10;50.60;;;;;;5054512;28;20040;-52
2022/09/13 00:35:10;;;;;;;2.92;2.63;;;25.10;50.60;;;;;;5054231;28;20455;-51
2022/09/13 00:37:36;;;;;;;2.75;2.38;;;25.10;50.60;;;;;;5058286;28;20029;-51
2022/09/13 00:40:02;;;;;;;3.00;2.40;;;25.10;50.60;;;;;;5058494;28;20025;-53
2022/09/13 00:42:34;;;;;;;2.58;2.30;;;25.10;50.70;;;;;;5058012;28;20086;-53
2022/09/13 00:45:05;;;;;;;3.65;2.70;;;25.10;51.40;;;;;;5050948;28;20028;-53
2022/09/13 00:47:40;;;;;;;3.45;2.55;;;25.10;50.80;;;;;;5044949;28;20369;-52
2022/09/13 00:50:18;;;;;;;2.83;2.30;;;25.10;50.80;;;;;;5044495;28;20068;-52
2022/09/13 00:52:49;;;;;;;3.08;2.63;;;25.00;50.70;;;;;;5057813;28;20028;-50
2022/09/13 00:55:30;;;;;;;2.88;2.47;;;25.00;50.80;;;;;;5044875;28;20029;-56
2022/09/13 00:58:00;;;;;;;2.50;2.30;;;25.10;50.80;;;;;;5038237;28;20034;-53
2022/09/13 01:00:26;;;;;;;3.10;2.50;;;25.00;50.80;;;;;;5055522;28;20135;-52
2022/09/13 01:02:57;;;;;;;2.85;2.30;;;25.00;50.70;;;;;;5057667;28;20051;-53
2022/09/13 01:05:26;;;;;;;2.88;2.25;;;25.00;50.70;;;;;;5053007;28;20029;-52
2022/09/13 01:07:54;;;;;;;3.10;2.40;;;25.00;50.70;;;;;;5057843;28;20334;-52
2022/09/13 01:10:22;;;;;;;2.92;2.38;;;25.00;50.80;;;;;;5057442;28;20448;-50
2022/09/13 01:13:24;;;;;;;3.15;2.45;;;25.00;50.80;;;;;;5058343;28;20448;-52
2022/09/13 01:15:51;;;;;;;4.07;2.40;;;25.00;50.90;;;;;;5054620;28;20036;-52
2022/09/13 01:18:17;;;;;;;2.83;2.17;;;25.00;50.80;;;;;;5037990;28;20065;-53
2022/09/13 01:21:06;;;;;;;3.55;2.33;;;25.00;50.90;;;;;;5038654;28;20029;-51
2022/09/13 01:24:02;;;;;;;3.55;2.67;;;25.00;50.90;;;;;;5025765;28;20464;-52
2022/09/13 01:26:49;;;;;;;3.17;2.50;;;25.00;50.80;;;;;;5051443;28;20404;-49
2022/09/13 01:29:18;;;;;;;3.35;2.22;;;25.00;50.90;;;;;;5054543;28;20036;-54
2022/09/13 01:31:54;;;;;;;2.97;2.35;;;25.00;50.90;;;;;;5057124;28;20041;-54
2022/09/13 01:34:52;;;;;;;2.42;2.13;;;25.00;50.90;;;;;;5053657;28;20147;-48
2022/09/13 01:37:47;;;;;;;2.70;2.25;;;25.00;51.00;;;;;;5056850;28;20040;-55
2022/09/13 01:40:16;;;;;;;2.83;2.33;;;24.90;51.00;;;;;;5055420;28;20021;-55
2022/09/13 01:42:54;;;;;;;2.65;2.28;;;24.90;51.00;;;;;;5057082;28;20093;-54
2022/09/13 01:45:47;;;;;;;3.30;2.58;;;24.90;51.00;;;;;;5045886;28;20089;-52
2022/09/13 01:48:28;;;;;;;2.90;2.60;;;24.90;51.00;;;;;;5053395;28;20033;-53
2022/09/13 01:51:06;;;;;;;2.85;2.33;;;24.90;51.00;;;;;;5056548;28;20033;-53
2022/09/13 01:53:54;;;;;;;3.00;2.25;;;24.90;51.00;;;;;;5016810;28;20450;-53
2022/09/13 01:56:23;;;;;;;3.10;2.22;;;24.90;51.00;;;;;;5016812;28;20507;-52
2022/09/13 01:58:57;;;;;;;3.38;2.53;;;24.90;50.90;;;;;;5017021;28;20403;-49
2022/09/13 02:01:54;;;;;;;3.33;2.50;;;24.90;50.90;;;;;;5035026;28;20368;-52
2022/09/13 02:04:35;;;;;;;2.67;2.17;;;24.90;50.90;;;;;;5035358;28;20131;-52
2022/09/13 02:07:13;;;;;;;2.75;2.25;;;24.90;50.90;;;;;;5045520;28;20049;-52
2022/09/13 02:09:44;;;;;;;3.13;2.83;;;24.90;50.90;;;;;;5056194;28;20505;-49
2022/09/13 02:12:17;;;;;;;2.63;2.40;;;24.90;50.90;;;;;;5048568;28;20033;-55
2022/09/13 02:14:45;;;;;;;2.50;2.30;;;24.80;50.80;;;;;;5046543;28;20043;-53
2022/09/13 02:17:24;;;;;;;2.78;2.40;;;24.90;50.90;;;;;;5050440;28;20029;-51
2022/09/13 02:19:59;;;;;;;2.17;2.00;;;24.90;50.90;;;;;;5056811;28;20043;-51
2022/09/13 02:22:33;;;;;;;3.08;2.30;;;24.90;50.90;;;;;;5044265;28;20037;-52
2022/09/13 02:25:05;;;;;;;2.72;2.40;;;24.90;50.90;;;;;;5046921;28;20438;-53
2022/09/13 02:27:34;;;;;;;4.25;2.65;;;24.80;50.80;;;;;;5056431;28;20045;-54
2022/09/13 02:30:09;;;;;;;3.22;2.45;;;24.90;50.90;;;;;;5028665;28;20033;-53
2022/09/13 02:32:58;;;;;;;2.40;2.20;;;24.90;50.90;;;;;;5056459;28;20033;-56
2022/09/13 02:35:32;;;;;;;3.45;2.88;;;24.80;50.80;;;;;;5053716;28;20372;-52
2022/09/13 02:38:08;;;;;;;2.95;2.47;;;24.80;50.80;;;;;;5051378;28;20120;-48
2022/09/13 02:40:41;;;;;;;2.80;2.38;;;24.80;50.80;;;;;;5047473;28;20041;-51
2022/09/13 02:43:20;;;;;;;3.70;2.50;;;24.80;50.80;;;;;;5055571;28;20035;-50
2022/09/13 02:46:03;;;;;;;3.45;2.65;;;24.80;50.90;;;;;;5052862;28;20378;-51
2022/09/13 02:48:42;;;;;;;2.70;2.40;;;24.80;50.90;;;;;;5038987;28;20044;-53
2022/09/13 02:51:16;;;;;;;5.35;2.45;;;24.80;50.90;;;;;;5049516;28;22244;-52
2022/09/13 02:54:08;;;;;;;2.58;2.30;;;24.80;50.80;;;;;;5053020;28;20039;-50
2022/09/13 02:56:39;;;;;;;4.95;2.70;;;24.80;50.70;;;;;;5052005;28;20025;-53
2022/09/13 02:59:24;;;;;;;3.03;2.72;;;24.80;50.70;;;;;;5035694;28;20404;-52
2022/09/13 03:01:57;;;;;;;2.40;2.10;;;24.80;50.60;;;;;;5035727;28;20041;-50
2022/09/13 03:04:22;;;;;;;2.60;2.08;;;24.80;50.60;;;;;;5040317;28;20047;-52
2022/09/13 03:06:49;;;;;;;2.40;2.17;;;24.80;50.50;;;;;;5043947;28;20053;-50
2022/09/13 03:09:16;;;;;;;5.20;2.10;;;24.80;50.40;;;;;;5055331;28;20124;-54
2022/09/13 03:12:10;;;;;;;3.22;2.40;;;24.80;50.40;;;;;;5055362;28;20112;-54
2022/09/13 03:15:17;;;;;;;2.67;1.90;;;24.80;50.40;;;;;;5052748;28;20043;-50
2022/09/13 03:17:53;;;;;;;2.58;2.25;;;24.80;50.30;;;;;;5029024;28;20054;-46
2022/09/13 03:20:55;;;;;;;3.13;2.42;;;24.80;50.40;;;;;;5042065;28;20120;-52
2022/09/13 03:24:06;;;;;;;2.20;2.00;;;24.80;50.30;;;;;;5050003;28;20509;-49
2022/09/13 03:26:44;;;;;;;2.10;1.90;;;24.80;50.30;;;;;;5055231;28;20344;-52
2022/09/13 03:29:10;;;;;;;2.42;2.17;;;24.80;50.40;;;;;;5054975;28;20045;-49
2022/09/13 03:31:51;;;;;;;2.58;2.25;;;24.70;50.30;;;;;;5053215;28;20024;-52
2022/09/13 03:34:34;;;;;;;3.20;2.70;;;24.70;50.30;;;;;;5039049;28;20036;-52
2022/09/13 03:37:16;;;;;;;2.38;2.08;;;24.70;50.30;;;;;;5052147;28;20028;-51
2022/09/13 03:39:52;;;;;;;2.58;2.38;;;24.80;50.30;;;;;;5055049;28;20029;-50
2022/09/13 03:42:26;;;;;;;2.70;2.45;;;24.70;50.30;;;;;;5054233;28;20041;-50
2022/09/13 03:44:55;;;;;;;4.25;2.63;;;24.70;50.30;;;;;;5051762;28;20344;-50
2022/09/13 03:47:24;;;;;;;2.55;2.35;;;24.70;50.30;;;;;;5046141;28;20040;-53
2022/09/13 03:49:52;;;;;;;2.70;2.35;;;24.70;50.30;;;;;;5034344;28;20049;-52
2022/09/13 03:52:18;;;;;;;2.70;2.33;;;24.70;50.30;;;;;;5049275;28;20503;-50
2022/09/13 03:54:44;;;;;;;3.60;2.22;;;24.70;50.30;;;;;;5050610;28;20025;-54
2022/09/13 03:57:16;;;;;;;2.40;2.20;;;24.70;50.30;;;;;;5055104;28;20039;-48
2022/09/13 03:59:46;;;;;;;3.55;2.30;;;24.70;50.30;;;;;;5054334;28;20460;-49
2022/09/13 04:02:13;;;;;;;3.47;2.15;;;24.70;50.30;;;;;;5051126;28;20108;-50
2022/09/13 04:04:41;;;;;;;4.72;2.40;;;24.70;50.30;;;;;;5053244;28;20116;-53
2022/09/13 04:07:08;;;;;;;3.15;2.30;;;24.70;50.30;;;;;;5042986;28;20056;-50
2022/09/13 04:09:34;;;;;;;3.00;2.45;;;24.70;50.30;;;;;;5040489;28;20348;-52
2022/09/13 04:12:00;;;;;;;3.03;2.45;;;24.70;50.30;;;;;;5053286;28;20040;-51
2022/09/13 04:14:27;;;;;;;3.85;2.70;;;24.70;50.30;;;;;;5043720;28;20033;-51
2022/09/13 04:16:56;;;;;;;2.83;2.28;;;24.70;50.30;;;;;;5058432;28;20025;-52
2022/09/13 04:19:24;;;;;;;3.08;2.40;;;24.70;50.30;;;;;;5056197;28;20040;-50
2022/09/13 04:21:51;;;;;;;3.20;2.22;;;24.70;50.40;;;;;;5057788;28;20411;-54
2022/09/13 04:24:18;;;;;;;2.60;2.38;;;24.70;50.40;;;;;;5053805;28;20033;-52
2022/09/13 04:26:49;;;;;;;4.72;2.55;;;24.70;50.40;;;;;;5058687;28;20464;-54
2022/09/13 04:29:17;;;;;;;2.75;2.33;;;24.70;50.40;;;;;;5057829;28;20348;-48
2022/09/13 04:31:44;;;;;;;3.25;2.40;;;24.70;50.40;;;;;;5056509;28;20043;-55
2022/09/13 04:34:09;;;;;;;2.42;2.22;;;24.70;50.40;;;;;;5041718;28;20032;-50
2022/09/13 04:36:35;;;;;;;3.20;2.50;;;24.70;50.40;;;;;;5058065;28;20028;-51
2022/09/13 04:39:01;;;;;;;3.00;2.70;;;24.70;50.40;;;;;;5058626;28;20120;-51
2022/09/13 04:41:28;;;;;;;4.05;2.55;;;24.70;50.40;;;;;;5058465;28;20040;-51
2022/09/13 04:43:54;;;;;;;2.40;2.15;;;24.70;50.50;;;;;;5056075;28;20422;-53
2022/09/13 04:46:20;;;;;;;3.20;2.58;;;24.70;50.50;;;;;;5053414;28;20075;-51
2022/09/13 04:48:50;;;;;;;3.47;2.60;;;24.70;50.50;;;;;;5040216;28;20069;-51
2022/09/13 04:51:16;;;;;;;3.25;2.38;;;24.70;50.50;;;;;;5057807;28;20033;-52
2022/09/13 04:53:45;;;;;;;2.80;2.50;;;24.70;50.50;;;;;;5057120;28;20112;-52
2022/09/13 04:56:14;;;;;;;3.05;2.40;;;24.70;50.50;;;;;;5053607;28;20452;-51
2022/09/13 04:58:40;;;;;;;2.70;2.50;;;24.70;50.50;;;;;;5038754;28;20036;-48
2022/09/13 05:01:08;;;;;;;2.58;2.38;;;24.60;50.40;;;;;;5052157;28;20090;-51
2022/09/13 05:03:34;;;;;;;3.00;2.70;;;24.70;50.50;;;;;;5047328;28;20444;-52
2022/09/13 05:06:10;;;;;;;3.17;2.45;;;24.70;50.50;;;;;;5055671;28;20059;-51
2022/09/13 05:08:36;;;;;;;3.00;2.70;;;24.70;50.60;;;;;;5057764;28;20044;-51
2022/09/13 05:11:03;;;;;;;2.78;2.30;;;24.60;50.60;;;;;;5057664;28;20043;-50
2022/09/13 05:13:29;;;;;;;2.92;2.63;;;24.60;51.30;;;;;;5049649;28;20055;-49
2022/09/13 05:15:59;;;;;;;3.42;2.53;;;24.60;50.80;;;;;;5056141;28;20117;-54
2022/09/13 05:18:30;;;;;;;3.30;2.78;;;24.70;50.90;;;;;;5053824;28;20068;-50
2022/09/13 05:20:57;;;;;;;2.75;2.55;;;24.60;50.90;;;;;;5025068;28;20079;-52
2022/09/13 05:23:24;;;;;;;2.83;2.50;;;24.60;50.90;;;;;;5051849;28;20108;-51
2022/09/13 05:25:59;;;;;;;3.90;2.58;;;24.70;51.00;;;;;;5046120;28;20506;-52
2022/09/13 05:28:27;;;;;;;3.20;2.70;;;24.60;51.00;;;;;;5054762;28;20387;-53
2022/09/13 05:30:58;;;;;;;3.60;2.90;;;24.70;51.10;;;;;;5046764;28;20033;-50
2022/09/13 05:33:26;;;;;;;3.10;2.80;;;24.60;51.10;;;;;;5057312;28;20182;-54
2022/09/13 05:35:52;;;;;;;3.15;2.70;;;24.60;51.10;;;;;;5052133;28;20037;-51
2022/09/13 05:38:18;;;;;;;3.60;2.88;;;24.60;51.10;;;;;;5056859;28;20063;-51
2022/09/13 05:40:44;;;;;;;2.78;2.38;;;24.60;51.20;;;;;;5038754;28;20025;-51
2022/09/13 05:43:10;;;;;;;2.75;2.55;;;24.60;51.30;;;;;;5037045;28;20033;-53
2022/09/13 05:45:36;;;;;;;2.80;2.50;;;24.60;51.30;;;;;;5043227;28;20027;-54
2022/09/13 05:48:02;;;;;;;2.88;2.58;;;24.60;51.40;;;;;;5042127;28;20091;-52
2022/09/13 05:50:28;;;;;;;3.08;2.72;;;24.60;51.40;;;;;;5043364;28;20033;-53
2022/09/13 05:52:55;;;;;;;3.15;2.85;;;24.60;51.50;;;;;;5056922;28;20083;-52
2022/09/13 05:55:21;;;;;;;3.40;2.90;;;24.60;51.50;;;;;;5051646;28;20033;-50
2022/09/13 05:57:48;;;;;;;3.65;2.95;;;24.60;51.60;;;;;;5056640;28;20041;-51
2022/09/13 06:00:14;;;;;;;3.47;3.08;;;24.60;51.60;;;;;;5053740;28;20499;-53
2022/09/13 06:02:40;;;;;;;4.18;3.10;;;24.60;51.60;;;;;;5056150;28;20468;-51
2022/09/13 06:05:10;;;;;;;4.18;2.83;;;24.60;51.60;;;;;;5049021;28;20110;-50
2022/09/13 06:07:40;;;;;;;3.55;3.00;;;24.60;51.60;;;;;;5047339;28;20061;-52
2022/09/13 06:10:07;;;;;;;4.32;3.13;;;24.60;51.60;;;;;;5036632;28;20045;-51
2022/09/13 06:12:32;;;;;;;3.53;3.00;;;24.60;51.70;;;;;;5035670;28;20402;-52
2022/09/13 06:14:58;;;;;;;3.58;3.05;;;24.60;51.70;;;;;;5051670;28;20060;-53
2022/09/13 06:17:24;;;;;;;3.78;2.90;;;24.60;52.30;;;;;;5053183;28;20033;-50
2022/09/13 06:19:50;;;;;;;3.97;3.28;;;24.60;51.70;;;;;;5049059;28;20026;-52
2022/09/13 06:22:16;;;;;;;3.35;2.83;;;24.60;51.70;;;;;;5047924;28;20021;-51
2022/09/13 06:24:42;;;;;;;3.97;3.05;;;24.60;51.70;;;;;;5053976;28;20033;-53
2022/09/13 06:27:09;;;;;;;3.42;3.03;;;24.70;51.80;;;;;;5036056;28;20108;-53
2022/09/13 06:29:35;;;;;;;4.72;3.33;;;24.60;51.70;;;;;;5037319;28;20482;-50
2022/09/13 06:32:02;;;;;;;4.40;2.67;;;24.70;51.80;;;;;;5043280;28;20061;-52
2022/09/13 06:34:28;;;;;;;4.85;3.10;;;24.60;51.80;;;;;;5038809;28;20519;-54
2022/09/13 06:36:54;;;;;;;3.20;2.90;;;24.60;51.80;;;;;;5038131;28;20067;-52
2022/09/13 06:39:20;;;;;;;2.97;2.67;;;24.60;51.70;;;;;;5033691;28;20175;-52
2022/09/13 06:41:46;;;;;;;4.22;3.08;;;24.70;51.80;;;;;;5037894;28;20048;-52
2022/09/13 06:44:11;;;;;;;3.85;3.00;;;24.70;51.80;;;;;;5033067;28;20040;-51
2022/09/13 06:46:37;;;;;;;4.47;3.75;;;24.70;51.80;;;;;;5032464;28;20104;-55
2022/09/13 06:49:05;;;;;;;3.85;3.30;;;24.70;52.40;;;;;;5047712;28;20044;-53
2022/09/13 06:51:32;;;;;;;5.13;4.07;;;24.70;51.80;;;;;;5039460;28;20040;-53
2022/09/13 06:53:59;;;;;;;3.78;3.33;;;24.60;51.70;;;;;;5053623;28;20120;-52
2022/09/13 06:56:31;;;;;;;4.55;3.90;;;24.60;51.70;;;;;;5043132;28;20029;-51
2022/09/13 06:58:59;;;;;;;4.53;3.53;;;24.70;51.80;;;;;;5054141;28;20039;-51
2022/09/13 07:01:28;;;;;;;4.22;3.33;;;24.70;51.80;;;;;;5034719;28;20029;-53
2022/09/13 07:04:15;;;;;;;4.57;3.40;;;24.70;51.80;;;;;;5052491;28;20029;-50
2022/09/13 07:06:43;;;;;;;4.38;3.63;;;24.70;51.80;;;;;;5049679;28;20140;-52
2022/09/13 07:09:13;;;;;;;4.32;3.90;;;24.70;51.90;;;;;;5046143;28;20045;-50
2022/09/13 07:11:40;;;;;;;5.72;4.05;;;24.70;51.90;;;;;;5036801;28;20044;-52
2022/09/13 07:14:07;;;;;;;4.47;3.40;;;24.70;51.90;;;;;;5034919;28;20084;-51
2022/09/13 07:16:36;;;;;;;4.95;4.03;;;24.70;52.00;;;;;;5034957;28;20032;-52
2022/09/13 07:19:04;;;;;;;6.47;4.00;;;24.70;52.00;;;;;;5037801;28;20435;-48
2022/09/13 07:21:31;;;;;;;5.28;4.07;;;24.70;52.00;;;;;;5046162;28;20044;-54
2022/09/13 07:23:58;;;;;;;5.25;4.10;;;24.70;52.10;;;;;;5046026;28;20102;-53
2022/09/13 07:26:26;;;;;;;4.93;3.60;;;24.70;52.10;;;;;;5043983;28;20048;-47
2022/09/13 07:28:55;;;;;;;4.95;3.80;;;24.70;52.10;;;;;;5048397;28;20033;-50
2022/09/13 07:31:27;;;;;;;6.20;3.90;;;24.70;52.20;;;;;;5040063;28;20026;-52
2022/09/13 07:34:01;;;;;;;4.22;3.70;;;24.70;52.20;;;;;;5041026;28;20450;-50
2022/09/13 07:36:29;;;;;;;5.38;3.85;;;24.70;52.20;;;;;;5046054;28;20039;-51
2022/09/13 07:38:56;;;;;;;5.55;3.72;;;24.70;52.30;;;;;;5038547;28;20045;-52
2022/09/13 07:41:23;;;;;;;4.63;3.53;;;24.70;52.30;;;;;;5029127;28;20060;-52
2022/09/13 07:43:50;;;;;;;3.92;3.13;;;24.70;52.40;;;;;;5041472;28;20053;-49
2022/09/13 07:46:25;;;;;;;5.03;3.80;;;24.70;52.50;;;;;;5037310;28;20039;-50
2022/09/13 07:48:55;;;;;;;4.10;3.20;;;24.70;52.50;;;;;;5047831;28;20042;-50
2022/09/13 07:51:23;;;;;;;3.58;2.92;;;24.70;52.60;;;;;;5035316;28;20036;-51
2022/09/13 07:53:51;;;;;;;6.75;3.25;;;24.80;52.80;;;;;;5034813;28;20388;-59
2022/09/13 07:56:22;;;;;;;3.13;2.67;;;24.80;52.80;;;;;;5033693;28;20029;-51
2022/09/13 07:58:50;;;;;;;4.43;3.03;;;24.80;53.10;;;;;;5040231;28;20108;-57
2022/09/13 08:01:19;;;;;;;3.75;2.70;;;24.80;53.30;;;;;;5045483;28;20025;-64
2022/09/13 08:03:59;;;;;;;3.17;2.05;;;24.80;53.50;;;;;;5046685;28;20090;-61
2022/09/13 08:06:27;;;;;;;3.33;1.85;;;24.80;53.20;;;;;;5038334;28;20136;-62
2022/09/13 08:08:53;;;;;;;3.83;1.90;;;24.80;52.80;;;;;;5044233;28;20033;-65
2022/09/13 08:11:20;;;;;;;3.28;1.90;;;24.80;52.40;;;;;;5036974;28;20453;-57
2022/09/13 08:13:47;;;;;;;2.92;1.98;;;24.80;52.30;;;;;;5036308;28;20037;-54
2022/09/13 08:16:14;;;;;;;1.88;1.45;;;24.80;52.80;;;;;;5036118;28;20049;-56
2022/09/13 08:18:48;;;;;;;1.58;1.33;;;24.80;53.90;;;;;;5032962;28;20072;-55
2022/09/13 08:21:14;;;;;;;;;;;24.80;53.80;;;;;;5034694;28;20033;-53
2022/09/13 08:23:40;;;;;;;2.63;1.50;;;24.80;53.90;;;;;;5038737;28;20294;-56
2022/09/13 08:26:07;;;;;;;2.65;1.40;;;24.80;54.10;;;;;;5048134;28;20445;-57
2022/09/13 08:28:34;;;;;;;1.88;1.55;;;24.90;54.30;;;;;;5034613;28;20116;-51
2022/09/13 08:31:07;;;;;;;2.42;1.52;;;24.90;54.50;;;;;;5032898;28;20422;-49
2022/09/13 08:33:34;;;;;;;2.93;1.67;;;24.90;54.60;;;;;;5034388;28;20033;-49
2022/09/13 08:36:00;;;;;;;2.58;2.08;;;24.90;54.60;;;;;;5034424;28;20720;-51
2022/09/13 08:38:27;;;;;;;3.85;1.98;;;24.90;54.70;;;;;;5034303;28;20030;-51
2022/09/13 08:41:18;;;;;;;2.42;2.00;;;24.90;54.70;;;;;;5041557;28;20041;-54
2022/09/13 08:43:59;;;;;;;2.53;1.73;;;25.00;54.70;;;;;;5053355;28;20040;-50
2022/09/13 08:46:45;;;;;;;3.35;2.17;;;25.00;54.70;;;;;;5050434;28;20037;-53
2022/09/13 08:49:21;;;;;;;4.10;2.40;;;25.00;54.70;;;;;;5053435;28;20033;-53
2022/09/13 08:51:50;;;;;;;3.83;2.28;;;25.00;54.70;;;;;;5054057;28;20040;-53
2022/09/13 08:54:17;;;;;;;3.90;3.08;;;25.00;54.70;;;;;;5054692;28;20336;-52
2022/09/13 08:56:55;;;;;;;3.03;2.10;;;25.00;54.70;;;;;;5036917;28;20055;-54
2022/09/13 08:59:25;;;;;;;2.42;2.03;;;25.00;54.70;;;;;;5037059;28;20179;-55
2022/09/13 09:02:28;;;;;;;3.78;2.50;;;25.00;54.70;;;;;;5051193;28;20053;-53
2022/09/13 09:05:05;;;;;;;4.10;2.60;;;25.00;54.70;;;;;;5057837;28;20029;-62
2022/09/13 09:07:41;;;;;;;2.67;2.33;;;25.10;54.80;;;;;;5052706;28;20447;-63
2022/09/13 09:10:19;;;;;;;3.22;2.10;;;25.10;54.80;;;;;;5057221;28;20459;-53
2022/09/13 09:12:52;;;;;;;3.45;2.25;;;25.10;54.80;;;;;;5057467;28;20033;-52
2022/09/13 09:15:28;;;;;;;3.22;2.25;;;25.00;54.80;;;;;;5040268;28;20084;-53
2022/09/13 09:18:20;;;;;;;3.08;2.38;;;25.10;55.00;;;;;;5040219;28;20389;-53
2022/09/13 09:20:49;;;;;;;2.28;2.08;;;25.10;55.00;;;;;;5056062;28;20364;-52
2022/09/13 09:23:28;;;;;;;6.65;2.53;;;25.10;55.00;;;;;;5056064;28;20356;-54
2022/09/13 09:26:12;;;;;;;2.28;1.58;;;25.10;55.10;;;;;;5017902;28;20040;-52
2022/09/13 09:28:38;;;;;;;2.85;2.00;;;25.20;55.10;;;;;;5017232;28;20038;-55
2022/09/13 09:31:13;;;;;;;1.83;1.60;;;25.10;55.00;;;;;;5043865;28;20022;-51
2022/09/13 09:33:57;;;;;;;4.13;2.33;;;25.20;55.10;;;;;;5040143;28;20112;-53
2022/09/13 09:36:39;;;;;;;1.75;1.63;;;25.20;55.10;;;;;;5037175;28;20033;-52
2022/09/13 09:39:11;;;;;;;2.60;1.83;;;25.20;55.10;;;;;;5034520;28;20044;-53
2022/09/13 09:41:37;;;;;;;2.85;1.75;;;25.20;55.80;;;;;;5056300;28;20029;-53
2022/09/13 09:44:22;;;;;;;3.00;1.65;;;25.20;55.10;;;;;;5045926;28;20075;-52
2022/09/13 09:46:56;;;;;;;2.58;1.67;;;25.20;55.10;;;;;;5038578;28;20108;-54
2022/09/13 09:52:25;;;;;;;4.22;1.40;;;25.20;55.20;;;;;;5037702;28;20025;-52
2022/09/13 09:54:51;;;;;;;2.20;1.45;;;25.20;55.30;;;;;;5041863;28;20440;-54
2022/09/13 09:57:19;;;;;;;2.45;1.35;;;25.20;55.30;;;;;;5050744;28;20029;-53
2022/09/13 09:59:45;;;;;;;2.13;1.30;;;25.30;55.30;;;;;;5056992;28;20029;-52
2022/09/13 10:02:19;;;;;;;2.70;1.27;;;25.30;55.20;;;;;;5056613;28;20037;-50
2022/09/13 10:04:57;;;;;;;3.27;1.40;;;25.30;55.10;;;;;;5051233;28;20037;-55
2022/09/13 10:07:31;;;;;;;1.48;1.10;;;25.30;55.60;;;;;;5039129;28;20295;-51
2022/09/13 10:10:05;;;;;;;4.28;1.40;;;25.30;55.00;;;;;;5056338;28;20037;-55
2022/09/13 10:12:38;;;;;;;3.13;1.35;;;25.30;54.90;;;;;;5056379;28;20464;-53
2022/09/13 10:15:17;;;;;;;2.08;1.23;;;25.30;54.90;;;;;;5056453;28;20051;-53
2022/09/13 10:17:59;;;;;;;1.60;1.17;;;25.30;54.90;;;;;;5032196;28;20094;-52
2022/09/13 10:20:26;;;;;;;1.88;1.08;;;25.30;54.80;;;;;;5042935;28;20037;-54
2022/09/13 10:23:10;;;;;;;3.30;1.15;;;25.40;54.90;;;;;;5040423;28;20033;-55
2022/09/13 10:25:36;;;;;;;2.13;1.20;;;25.30;54.70;;;;;;5047032;28;20039;-58
2022/09/13 10:28:04;;;;;;;1.35;1.23;;;25.40;54.80;;;;;;5042887;28;20068;-56
2022/09/13 10:30:39;;;;;;;1.42;1.20;;;25.40;54.80;;;;;;5035708;28;20401;-54
2022/09/13 10:33:23;;;;;;;1.77;1.30;;;25.40;54.80;;;;;;5036251;28;20112;-56
2022/09/13 10:35:52;;;;;;;1.65;1.10;;;25.40;54.80;;;;;;5038748;28;20033;-53
2022/09/13 10:38:34;;;;;;;2.35;1.40;;;25.40;54.80;;;;;;5046984;28;20020;-57
2022/09/13 10:41:03;;;;;;;1.48;1.00;;;25.40;54.70;;;;;;5046639;28;20056;-56
2022/09/13 10:43:31;;;;;;;2.55;1.30;;;25.40;54.70;;;;;;5047336;28;20033;-56
2022/09/13 10:45:59;;;;;;;1.10;0.98;;;25.40;54.70;;;;;;5045354;28;20086;-51
2022/09/13 10:48:27;;;;;;;1.45;1.10;;;25.40;54.70;;;;;;5038912;28;20041;-53
2022/09/13 10:51:17;;;;;;;2.70;1.00;;;25.40;54.70;;;;;;5045096;28;20033;-57
2022/09/13 10:53:43;;;;;;;3.50;1.00;;;25.40;54.60;;;;;;5043115;28;20025;-54
2022/09/13 10:56:25;;;;;;;1.50;1.00;;;25.40;54.80;;;;;;5047884;28;20043;-54
2022/09/13 10:59:11;;;;;;;2.33;1.02;;;25.50;55.10;;;;;;5046970;28;20031;-51
2022/09/13 11:02:01;;;;;;;4.82;0.88;;;25.50;55.10;;;;;;5047113;28;20021;-48
2022/09/13 11:04:36;;;;;;;1.63;0.77;;;25.50;54.90;;;;;;5045211;28;20078;-49
2022/09/13 11:07:28;;;;;;;4.43;0.93;;;25.50;54.80;;;;;;5045109;28;20072;-53
2022/09/13 11:10:14;;;;;;;1.55;1.08;;;25.50;54.70;;;;;;5045794;28;20402;-51
2022/09/13 11:13:12;;;;;;;1.52;0.90;;;25.50;54.60;;;;;;5047504;28;20395;-55
2022/09/13 11:15:45;;;;;;;1.77;0.80;;;25.50;54.50;;;;;;5040743;28;20029;-50
2022/09/13 11:18:32;;;;;;;1.52;0.88;;;25.50;54.30;;;;;;5042113;28;20025;-55
2022/09/13 11:21:36;;;;;;;1.42;0.90;;;25.50;54.30;;;;;;5041543;28;20029;-56
2022/09/13 11:24:12;;;;;;;1.25;0.70;;;25.60;54.20;;;;;;5025138;28;20041;-53
2022/09/13 11:27:03;;;;;;;4.65;1.02;;;25.60;54.10;;;;;;5039843;28;20109;-50
2022/09/13 11:29:59;;;;;;;2.25;0.60;;;25.60;54.20;;;;;;5045671;28;20060;-55
2022/09/13 11:32:47;;;;;;;1.02;0.77;;;25.60;54.20;;;;;;5047399;28;20120;-52
2022/09/13 11:35:44;;;;;;;1.75;0.90;;;25.60;54.20;;;;;;5047424;28;20098;-52
2022/09/13 11:38:30;;;;;;;2.10;1.10;;;25.60;54.20;;;;;;5046784;28;20025;-51
2022/09/13 11:41:26;;;;;;;1.80;0.55;;;25.70;54.30;;;;;;5037915;28;20090;-55
2022/09/13 11:44:12;;;;;;;1.27;0.90;;;25.70;54.30;;;;;;5040283;28;20033;-55
2022/09/13 11:46:59;;;;;;;1.48;1.00;;;25.60;54.20;;;;;;5046139;28;20033;-58
2022/09/13 11:49:46;;;;;;;0.93;0.65;;;25.70;54.30;;;;;;5042334;28;20452;-64
2022/09/13 11:52:45;;;;;;;1.35;0.70;;;25.70;54.30;;;;;;5046093;28;20459;-57
2022/09/13 11:55:22;;;;;;;1.33;0.65;;;25.80;54.40;;;;;;4996411;28;20038;-60
2022/09/13 11:57:56;;;;;;;1.10;0.63;;;25.70;54.40;;;;;;5039477;28;20071;-60
2022/09/13 12:00:48;;;;;;;2.03;0.60;;;25.80;54.50;;;;;;5037680;28;20444;-61
2022/09/13 12:03:26;;;;;;;2.33;0.75;;;25.80;54.50;;;;;;5047818;28;20017;-58
2022/09/13 12:06:00;;;;;;;1.20;0.60;;;25.80;54.50;;;;;;5042522;28;20415;-60
2022/09/13 12:08:35;;;;;;;2.97;0.50;;;25.90;54.50;;;;;;5032913;28;20040;-59
2022/09/13 12:11:11;;;;;;;2.83;0.55;;;26.00;54.30;;;;;;5031018;28;20040;-60
2022/09/13 12:13:50;;;;;;;1.95;0.50;;;26.10;54.10;;;;;;5041489;28;20095;-57
2022/09/13 12:16:25;;;;;;;1.77;0.40;;;26.20;53.90;;;;;;5036636;28;20117;-61
2022/09/13 12:18:55;;;;;;;1.52;0.47;;;26.40;53.70;;;;;;5022753;28;20353;-59
2022/09/13 12:21:34;;;;;;;1.05;0.40;;;26.40;53.40;;;;;;5030822;28;20368;-60
2022/09/13 12:23:59;;;;;;;2.22;0.60;;;26.60;53.10;;;;;;5041926;28;20114;-58
2022/09/13 12:26:29;;;;;;;0.60;0.60;;;26.70;52.90;;;;;;5029546;28;20488;-61
2022/09/13 12:29:00;;;;;;;1.65;0.70;;;26.80;52.60;;;;;;5039753;28;20060;-60
2022/09/13 12:31:28;;;;;;;0.82;0.40;;;26.90;52.30;;;;;;5039788;28;20029;-58
2022/09/13 12:33:57;;;;;;;2.55;0.50;;;27.00;52.20;;;;;;5037232;28;20806;-58
2022/09/13 12:36:46;;;;;;;1.30;0.63;;;27.10;51.90;;;;;;5038245;28;20025;-60
2022/09/13 12:39:30;;;;;;;0.52;0.40;;;27.20;51.70;;;;;;5042737;28;20429;-61
2022/09/13 12:42:30;;;;;;;2.80;0.57;;;27.30;51.50;;;;;;5035512;28;20041;-61
2022/09/13 12:45:26;;;;;;;2.08;0.70;;;27.40;51.30;;;;;;5037422;28;20025;-60
2022/09/13 12:48:13;;;;;;;8.68;0.80;;;27.50;51.10;;;;;;5041794;28;20029;-57
2022/09/13 12:51:12;;;;;;;1.40;0.82;;;27.50;50.90;;;;;;5035229;28;20472;-59
2022/09/13 12:53:49;;;;;;;1.38;0.50;;;27.70;50.90;;;;;;5035955;28;20028;-60
2022/09/13 12:56:18;;;;;;;0.75;0.45;;;27.70;50.70;;;;;;5035498;28;20037;-61
2022/09/13 12:59:12;;;;;;;1.15;0.43;;;27.80;50.60;;;;;;5046087;28;20040;-58
2022/09/13 13:01:44;;;;;;;1.17;0.65;;;27.90;50.30;;;;;;5035799;28;20045;-60
2022/09/13 13:04:26;;;;;;;4.15;0.95;;;27.90;50.30;;;;;;5039841;28;20155;-60
2022/09/13 13:07:21;;;;;;;3.33;0.70;;;28.00;50.40;;;;;;5034231;28;20562;-60
2022/09/13 13:09:52;;;;;;;0.90;0.70;;;28.10;50.50;;;;;;5040598;28;20041;-60
2022/09/13 13:12:30;;;;;;;1.73;0.80;;;28.10;50.30;;;;;;5035713;28;20029;-59
2022/09/13 13:14:57;;;;;;;2.30;0.98;;;28.20;50.20;;;;;;5035597;28;20033;-57
2022/09/13 13:18:18;;;;;;;2.53;0.70;;;28.20;50.00;;;;;;5033984;28;20120;-53
2022/09/13 13:20:53;;;;;;;2.40;0.98;;;28.20;49.60;;;;;;5016952;28;20334;-56
2022/09/13 13:23:29;;;;;;;0.70;0.60;;;28.20;49.40;;;;;;5034431;28;20248;-58
2022/09/13 13:26:09;;;;;;;1.65;0.52;;;28.30;49.20;;;;;;5033917;28;20030;-54